sensor_id;sensor_type;location;lat;lon;timestamp;pressure;altitude;pressure_sealevel;temperature;humidity
7157;BME280;3620;49.862;8.758;2022-07-29T00:01:06;99107.84;;;23.20;48.91
7157;BME280;3620;49.862;8.758;2022-07-29T00:03:33;99114.03;;;23.20;48.35
7157;BME280;3620;49.862;8.758;2022-07-29T00:06:01;99106.16;;;23.19;48.73
7157;BME280;3620;49.862;8.758;2022-07-29T00:08:28;99107.91;;;23.10;48.48
7157;BME280;3620;49.862;8.758;2022-07-29T00:10:55;99109.66;;;23.02;48.68
7157;BME280;3620;49.862;8.758;2022-07-29T00:13:21;99104.06;;;22.95;48.81
7157;BME280;3620;49.862;8.758;2022-07-29T00:15:48;99102.88;;;22.98;48.57
7157;BME280;3620;49.862;8.758;2022-07-29T00:18:15;99108.56;;;22.95;48.93
7157;BME280;3620;49.862;8.758;2022-07-29T00:20:42;99106.41;;;22.71;49.24
7157;BME280;3620;49.862;8.758;2022-07-29T00:23:10;99113.19;;;22.75;49.76
7157;BME280;3620;49.862;8.758;2022-07-29T00:25:36;99107.84;;;22.75;50.02
7157;BME280;3620;49.862;8.758;2022-07-29T00:28:03;99096.72;;;22.70;50.19
7157;BME280;3620;49.862;8.758;2022-07-29T00:30:31;99100.09;;;22.72;50.45
7157;BME280;3620;49.862;8.758;2022-07-29T00:32:57;99096.78;;;22.78;49.43
7157;BME280;3620;49.862;8.758;2022-07-29T00:35:24;99094.03;;;22.70;49.77
7157;BME280;3620;49.862;8.758;2022-07-29T00:38:10;99099.09;;;22.73;50.40
7157;BME280;3620;49.862;8.758;2022-07-29T00:40:36;99096.72;;;22.70;50.31
7157;BME280;3620;49.862;8.758;2022-07-29T00:43:03;99092.94;;;22.63;50.36
7157;BME280;3620;49.862;8.758;2022-07-29T00:45:30;99102.50;;;22.66;50.13
7157;BME280;3620;49.862;8.758;2022-07-29T00:47:57;99101.53;;;22.67;50.69
7157;BME280;3620;49.862;8.758;2022-07-29T00:50:24;99103.91;;;22.70;50.75
7157;BME280;3620;49.862;8.758;2022-07-29T00:52:52;99107.03;;;22.65;50.97
7157;BME280;3620;49.862;8.758;2022-07-29T00:55:21;99108.72;;;22.66;50.82
7157;BME280;3620;49.862;8.758;2022-07-29T00:57:47;99104.34;;;22.65;50.77
7157;BME280;3620;49.862;8.758;2022-07-29T01:00:16;99101.97;;;22.62;51.25
7157;BME280;3620;49.862;8.758;2022-07-29T01:02:44;99102.97;;;22.61;51.40
7157;BME280;3620;49.862;8.758;2022-07-29T01:05:14;99105.50;;;22.53;51.66
7157;BME280;3620;49.862;8.758;2022-07-29T01:07:41;99104.50;;;22.54;51.41
7157;BME280;3620;49.862;8.758;2022-07-29T01:10:09;99103.97;;;22.50;51.53
7157;BME280;3620;49.862;8.758;2022-07-29T01:12:38;99098.34;;;22.44;51.39
7157;BME280;3620;49.862;8.758;2022-07-29T01:15:07;99094.09;;;22.51;49.62
7157;BME280;3620;49.862;8.758;2022-07-29T01:17:41;99091.31;;;22.33;48.25
7157;BME280;3620;49.862;8.758;2022-07-29T01:20:14;99093.34;;;22.22;48.46
7157;BME280;3620;49.862;8.758;2022-07-29T01:23:07;99089.97;;;22.20;49.10
7157;BME280;3620;49.862;8.758;2022-07-29T01:25:57;99085.00;;;22.25;49.39
7157;BME280;3620;49.862;8.758;2022-07-29T01:28:52;99088.81;;;22.22;49.08
7157;BME280;3620;49.862;8.758;2022-07-29T01:31:28;99091.81;;;22.19;48.91
7157;BME280;3620;49.862;8.758;2022-07-29T01:34:02;99090.38;;;22.25;49.89
7157;BME280;3620;49.862;8.758;2022-07-29T01:36:33;99090.53;;;22.23;50.01
7157;BME280;3620;49.862;8.758;2022-07-29T01:39:06;99084.91;;;22.17;50.60
7157;BME280;3620;49.862;8.758;2022-07-29T01:41:36;99081.53;;;22.15;50.79
7157;BME280;3620;49.862;8.758;2022-07-29T01:44:11;99080.97;;;22.11;50.95
7157;BME280;3620;49.862;8.758;2022-07-29T01:46:41;99077.75;;;22.08;51.30
7157;BME280;3620;49.862;8.758;2022-07-29T01:49:13;99084.38;;;22.04;51.59
7157;BME280;3620;49.862;8.758;2022-07-29T01:51:45;99089.75;;;22.04;51.72
7157;BME280;3620;49.862;8.758;2022-07-29T01:54:18;99088.19;;;22.01;51.71
7157;BME280;3620;49.862;8.758;2022-07-29T01:56:48;99081.72;;;21.94;51.86
7157;BME280;3620;49.862;8.758;2022-07-29T01:59:18;99082.28;;;21.98;51.58
7157;BME280;3620;49.862;8.758;2022-07-29T02:01:46;99080.44;;;21.98;51.70
7157;BME280;3620;49.862;8.758;2022-07-29T02:04:15;99076.50;;;21.93;51.13
7157;BME280;3620;49.862;8.758;2022-07-29T02:06:44;99076.78;;;21.89;50.74
7157;BME280;3620;49.862;8.758;2022-07-29T02:09:12;99082.84;;;21.92;50.66
7157;BME280;3620;49.862;8.758;2022-07-29T02:11:47;99075.41;;;21.85;50.74
7157;BME280;3620;49.862;8.758;2022-07-29T02:14:15;99074.69;;;21.83;50.89
7157;BME280;3620;49.862;8.758;2022-07-29T02:16:45;99079.31;;;21.81;51.00
7157;BME280;3620;49.862;8.758;2022-07-29T02:19:14;99077.63;;;21.80;51.20
7157;BME280;3620;49.862;8.758;2022-07-29T02:21:43;99080.59;;;21.77;51.02
7157;BME280;3620;49.862;8.758;2022-07-29T02:24:11;99072.56;;;21.77;50.75
7157;BME280;3620;49.862;8.758;2022-07-29T02:26:40;99070.72;;;21.78;50.67
7157;BME280;3620;49.862;8.758;2022-07-29T02:29:09;99070.88;;;21.76;50.58
7157;BME280;3620;49.862;8.758;2022-07-29T02:31:39;99081.59;;;21.76;50.40
7157;BME280;3620;49.862;8.758;2022-07-29T02:34:10;99070.59;;;21.79;50.38
7157;BME280;3620;49.862;8.758;2022-07-29T02:36:38;99074.25;;;21.78;50.48
7157;BME280;3620;49.862;8.758;2022-07-29T02:39:07;99077.63;;;21.80;49.76
7157;BME280;3620;49.862;8.758;2022-07-29T02:41:38;99080.47;;;21.79;49.96
7157;BME280;3620;49.862;8.758;2022-07-29T02:44:11;99073.13;;;21.81;50.16
7157;BME280;3620;49.862;8.758;2022-07-29T02:46:46;99071.75;;;21.86;49.51
7157;BME280;3620;49.862;8.758;2022-07-29T02:49:18;99077.94;;;21.87;49.78
7157;BME280;3620;49.862;8.758;2022-07-29T02:51:53;99070.03;;;21.85;49.37
7157;BME280;3620;49.862;8.758;2022-07-29T02:54:31;99066.78;;;21.82;49.34
7157;BME280;3620;49.862;8.758;2022-07-29T02:57:03;99059.72;;;21.81;49.00
7157;BME280;3620;49.862;8.758;2022-07-29T02:59:34;99069.19;;;21.75;49.15
7157;BME280;3620;49.862;8.758;2022-07-29T03:02:03;99071.88;;;21.75;49.27
7157;BME280;3620;49.862;8.758;2022-07-29T03:04:34;99067.06;;;21.69;49.38
7157;BME280;3620;49.862;8.758;2022-07-29T03:07:01;99070.31;;;21.63;50.01
7157;BME280;3620;49.862;8.758;2022-07-29T03:09:30;99063.31;;;21.53;50.04
7157;BME280;3620;49.862;8.758;2022-07-29T03:11:58;99070.06;;;21.47;50.44
7157;BME280;3620;49.862;8.758;2022-07-29T03:14:25;99065.00;;;21.44;50.56
7157;BME280;3620;49.862;8.758;2022-07-29T03:16:53;99068.66;;;21.43;51.10
7157;BME280;3620;49.862;8.758;2022-07-29T03:19:20;99056.69;;;21.38;50.65
7157;BME280;3620;49.862;8.758;2022-07-29T03:21:48;99057.94;;;21.34;50.94
7157;BME280;3620;49.862;8.758;2022-07-29T03:24:26;99055.56;;;21.31;51.17
7157;BME280;3620;49.862;8.758;2022-07-29T03:26:54;99052.47;;;21.26;51.56
7157;BME280;3620;49.862;8.758;2022-07-29T03:29:21;99053.72;;;21.31;51.08
7157;BME280;3620;49.862;8.758;2022-07-29T03:31:47;99045.28;;;21.26;51.25
7157;BME280;3620;49.862;8.758;2022-07-29T03:34:14;99046.97;;;21.27;50.93
7157;BME280;3620;49.862;8.758;2022-07-29T03:36:41;99043.16;;;21.30;50.64
7157;BME280;3620;49.862;8.758;2022-07-29T03:39:10;99045.56;;;21.23;51.01
7157;BME280;3620;49.862;8.758;2022-07-29T03:41:40;99044.44;;;21.16;51.55
7157;BME280;3620;49.862;8.758;2022-07-29T03:44:09;99044.16;;;21.19;51.53
7157;BME280;3620;49.862;8.758;2022-07-29T03:46:39;99035.13;;;21.20;51.60
7157;BME280;3620;49.862;8.758;2022-07-29T03:49:08;99040.19;;;21.13;51.99
7157;BME280;3620;49.862;8.758;2022-07-29T03:51:35;99036.97;;;21.10;52.07
7157;BME280;3620;49.862;8.758;2022-07-29T03:54:03;99046.91;;;20.98;52.50
7157;BME280;3620;49.862;8.758;2022-07-29T03:56:32;99040.72;;;20.98;52.60
7157;BME280;3620;49.862;8.758;2022-07-29T03:59:02;99035.94;;;20.92;52.61
7157;BME280;3620;49.862;8.758;2022-07-29T04:01:29;99040.72;;;20.98;52.39
7157;BME280;3620;49.862;8.758;2022-07-29T04:03:59;99040.72;;;20.98;52.84
7157;BME280;3620;49.862;8.758;2022-07-29T04:06:26;99041.00;;;20.95;53.01
7157;BME280;3620;49.862;8.758;2022-07-29T04:08:53;99040.72;;;20.88;53.61
7157;BME280;3620;49.862;8.758;2022-07-29T04:11:20;99036.75;;;20.83;53.58
7157;BME280;3620;49.862;8.758;2022-07-29T04:13:48;99047.75;;;20.80;53.33
7157;BME280;3620;49.862;8.758;2022-07-29T04:16:14;99038.75;;;20.81;53.16
7157;BME280;3620;49.862;8.758;2022-07-29T04:18:41;99043.22;;;20.80;53.75
7157;BME280;3620;49.862;8.758;2022-07-29T04:21:08;99040.72;;;20.79;53.74
7157;BME280;3620;49.862;8.758;2022-07-29T04:23:35;99037.75;;;20.82;53.95
7157;BME280;3620;49.862;8.758;2022-07-29T04:26:01;99040.03;;;20.86;53.91
7157;BME280;3620;49.862;8.758;2022-07-29T04:28:28;99044.97;;;20.91;53.65
7157;BME280;3620;49.862;8.758;2022-07-29T04:30:56;99046.38;;;20.95;53.64
7157;BME280;3620;49.862;8.758;2022-07-29T04:33:23;99046.38;;;20.95;53.49
7157;BME280;3620;49.862;8.758;2022-07-29T04:35:49;99044.53;;;20.86;53.95
7157;BME280;3620;49.862;8.758;2022-07-29T04:38:16;99051.66;;;20.76;53.62
7157;BME280;3620;49.862;8.758;2022-07-29T04:40:43;99052.53;;;20.76;53.96
7157;BME280;3620;49.862;8.758;2022-07-29T04:43:10;99052.66;;;20.75;54.40
7157;BME280;3620;49.862;8.758;2022-07-29T04:45:36;99052.81;;;20.83;54.49
7157;BME280;3620;49.862;8.758;2022-07-29T04:48:05;99051.41;;;20.79;54.28
7157;BME280;3620;49.862;8.758;2022-07-29T04:50:32;99046.06;;;20.79;54.38
7157;BME280;3620;49.862;8.758;2022-07-29T04:52:58;99047.75;;;20.80;54.31
7157;BME280;3620;49.862;8.758;2022-07-29T04:55:25;99049.44;;;20.81;54.40
7157;BME280;3620;49.862;8.758;2022-07-29T04:57:52;99051.13;;;20.82;54.15
7157;BME280;3620;49.862;8.758;2022-07-29T05:00:19;99044.94;;;20.81;54.05
7157;BME280;3620;49.862;8.758;2022-07-29T05:02:45;99052.81;;;20.83;53.85
7157;BME280;3620;49.862;8.758;2022-07-29T05:05:13;99050.84;;;20.85;53.91
7157;BME280;3620;49.862;8.758;2022-07-29T05:07:40;99045.50;;;20.85;54.05
7157;BME280;3620;49.862;8.758;2022-07-29T05:10:08;99048.91;;;20.96;53.52
7157;BME280;3620;49.862;8.758;2022-07-29T05:12:35;99053.69;;;20.93;53.50
7157;BME280;3620;49.862;8.758;2022-07-29T05:15:02;99051.41;;;20.98;53.60
7157;BME280;3620;49.862;8.758;2022-07-29T05:17:29;99061.41;;;20.96;53.54
7157;BME280;3620;49.862;8.758;2022-07-29T05:19:56;99059.44;;;20.98;53.80
7157;BME280;3620;49.862;8.758;2022-07-29T05:27:17;99070.47;;;21.04;53.69
7157;BME280;3620;49.862;8.758;2022-07-29T05:29:43;99059.50;;;21.07;53.78
7157;BME280;3620;49.862;8.758;2022-07-29T05:32:10;99061.84;;;21.01;53.44
7157;BME280;3620;49.862;8.758;2022-07-29T05:34:37;99063.56;;;21.02;53.66
7157;BME280;3620;49.862;8.758;2022-07-29T05:37:04;99061.03;;;21.10;54.84
7157;BME280;3620;49.862;8.758;2022-07-29T05:39:32;99067.94;;;21.12;54.52
7157;BME280;3620;49.862;8.758;2022-07-29T05:41:58;99062.03;;;21.09;53.28
7157;BME280;3620;49.862;8.758;2022-07-29T05:44:25;99062.75;;;21.11;53.18
7157;BME280;3620;49.862;8.758;2022-07-29T05:46:52;99058.81;;;21.15;53.22
7157;BME280;3620;49.862;8.758;2022-07-29T05:49:19;99058.38;;;21.20;52.46
7157;BME280;3620;49.862;8.758;2022-07-29T05:51:45;99063.59;;;21.21;52.54
7157;BME280;3620;49.862;8.758;2022-07-29T05:54:14;99066.97;;;21.23;52.52
7157;BME280;3620;49.862;8.758;2022-07-29T05:56:42;99062.47;;;21.24;53.15
7157;BME280;3620;49.862;8.758;2022-07-29T05:59:08;99065.84;;;21.26;53.56
7157;BME280;3620;49.862;8.758;2022-07-29T06:01:35;99069.34;;;21.36;52.35
7157;BME280;3620;49.862;8.758;2022-07-29T06:04:04;99074.59;;;21.37;52.66
7157;BME280;3620;49.862;8.758;2022-07-29T06:06:31;99075.97;;;21.41;52.95
7157;BME280;3620;49.862;8.758;2022-07-29T06:08:58;99067.94;;;21.41;53.55
7157;BME280;3620;49.862;8.758;2022-07-29T06:11:25;99078.25;;;21.46;54.29
7157;BME280;3620;49.862;8.758;2022-07-29T06:13:53;99080.50;;;21.50;53.59
7157;BME280;3620;49.862;8.758;2022-07-29T06:16:20;99084.41;;;21.56;53.34
7157;BME280;3620;49.862;8.758;2022-07-29T06:18:46;99087.53;;;21.61;53.41
7157;BME280;3620;49.862;8.758;2022-07-29T06:21:13;99090.03;;;21.62;53.05
7157;BME280;3620;49.862;8.758;2022-07-29T06:23:40;99087.53;;;21.70;53.03
7157;BME280;3620;49.862;8.758;2022-07-29T06:26:07;99084.69;;;21.72;52.85
7157;BME280;3620;49.862;8.758;2022-07-29T06:28:34;99084.97;;;21.78;53.46
7157;BME280;3620;49.862;8.758;2022-07-29T06:31:02;99082.75;;;21.83;52.48
7157;BME280;3620;49.862;8.758;2022-07-29T06:33:29;99083.44;;;21.85;52.20
7157;BME280;3620;49.862;8.758;2022-07-29T06:35:56;99076.50;;;21.93;53.08
7157;BME280;3620;49.862;8.758;2022-07-29T06:38:23;99081.84;;;22.02;53.04
7157;BME280;3620;49.862;8.758;2022-07-29T06:40:49;99077.03;;;22.06;52.96
7157;BME280;3620;49.862;8.758;2022-07-29T06:43:30;99088.72;;;22.05;52.38
7157;BME280;3620;49.862;8.758;2022-07-29T06:46:01;99079.44;;;22.09;52.53
7157;BME280;3620;49.862;8.758;2022-07-29T06:48:28;99077.47;;;22.11;53.08
7157;BME280;3620;49.862;8.758;2022-07-29T06:50:55;99079.53;;;22.17;53.31
7157;BME280;3620;49.862;8.758;2022-07-29T06:53:22;99076.44;;;22.21;52.67
7157;BME280;3620;49.862;8.758;2022-07-29T06:55:49;99084.44;;;22.31;52.00
7157;BME280;3620;49.862;8.758;2022-07-29T06:58:16;99080.16;;;22.38;52.22
7157;BME280;3620;49.862;8.758;2022-07-29T07:00:45;99079.19;;;22.39;51.92
7157;BME280;3620;49.862;8.758;2022-07-29T07:03:14;99086.97;;;22.32;51.80
7157;BME280;3620;49.862;8.758;2022-07-29T07:05:41;99090.88;;;22.38;52.56
7157;BME280;3620;49.862;8.758;2022-07-29T07:08:08;99093.72;;;22.36;51.60
7157;BME280;3620;49.862;8.758;2022-07-29T07:10:35;99102.16;;;22.41;51.86
7157;BME280;3620;49.862;8.758;2022-07-29T07:13:02;99103.41;;;22.47;51.03
7157;BME280;3620;49.862;8.758;2022-07-29T07:15:29;99094.09;;;22.51;50.01
7157;BME280;3620;49.862;8.758;2022-07-29T07:17:56;99094.34;;;22.57;50.70
7157;BME280;3620;49.862;8.758;2022-07-29T07:20:24;99104.66;;;22.62;50.60
7157;BME280;3620;49.862;8.758;2022-07-29T07:22:51;99101.38;;;22.68;50.69
7157;BME280;3620;49.862;8.758;2022-07-29T07:25:18;99106.59;;;22.70;50.24
7157;BME280;3620;49.862;8.758;2022-07-29T07:27:45;99102.16;;;22.78;50.04
7157;BME280;3620;49.862;8.758;2022-07-29T07:30:12;99099.59;;;22.86;50.20
7157;BME280;3620;49.862;8.758;2022-07-29T07:32:39;99108.72;;;22.93;49.88
7157;BME280;3620;49.862;8.758;2022-07-29T07:35:07;99103.59;;;23.00;50.15
7157;BME280;3620;49.862;8.758;2022-07-29T07:37:37;99098.03;;;23.11;50.37
7157;BME280;3620;49.862;8.758;2022-07-29T07:40:04;99096.56;;;23.16;49.84
7157;BME280;3620;49.862;8.758;2022-07-29T07:42:31;99100.72;;;23.28;49.44
7157;BME280;3620;49.862;8.758;2022-07-29T07:44:59;99107.16;;;23.36;49.93
7157;BME280;3620;49.862;8.758;2022-07-29T07:47:26;99103.22;;;23.40;50.54
7157;BME280;3620;49.862;8.758;2022-07-29T07:49:53;99098.66;;;23.40;49.07
7157;BME280;3620;49.862;8.758;2022-07-29T07:52:21;99098.19;;;23.45;48.96
7157;BME280;3620;49.862;8.758;2022-07-29T07:54:49;99101.66;;;23.55;49.70
7157;BME280;3620;49.862;8.758;2022-07-29T07:57:16;99103.25;;;23.65;49.14
7157;BME280;3620;49.862;8.758;2022-07-29T07:59:43;99104.34;;;23.72;49.24
7157;BME280;3620;49.862;8.758;2022-07-29T08:02:10;99105.91;;;23.83;49.58
7157;BME280;3620;49.862;8.758;2022-07-29T08:04:37;99106.00;;;23.91;48.90
7157;BME280;3620;49.862;8.758;2022-07-29T08:07:06;99103.75;;;24.04;48.76
7157;BME280;3620;49.862;8.758;2022-07-29T08:09:34;99103.44;;;24.07;49.58
7157;BME280;3620;49.862;8.758;2022-07-29T08:12:03;99100.81;;;24.15;48.99
7157;BME280;3620;49.862;8.758;2022-07-29T08:14:31;99100.19;;;24.21;48.09
7157;BME280;3620;49.862;8.758;2022-07-29T08:16:59;99094.31;;;24.26;48.31
7157;BME280;3620;49.862;8.758;2022-07-29T08:19:26;99093.84;;;24.30;48.86
7157;BME280;3620;49.862;8.758;2022-07-29T08:21:53;99089.84;;;24.34;48.83
7157;BME280;3620;49.862;8.758;2022-07-29T08:24:20;99097.94;;;24.42;48.90
7157;BME280;3620;49.862;8.758;2022-07-29T08:27:05;99095.94;;;24.44;49.06
7157;BME280;3620;49.862;8.758;2022-07-29T08:29:32;99098.00;;;24.58;48.15
7157;BME280;3620;49.862;8.758;2022-07-29T08:31:59;99103.25;;;24.60;49.51
7157;BME280;3620;49.862;8.758;2022-07-29T08:34:26;99095.69;;;24.63;48.55
7157;BME280;3620;49.862;8.758;2022-07-29T08:36:53;99098.41;;;24.71;48.98
7157;BME280;3620;49.862;8.758;2022-07-29T08:39:20;99104.56;;;24.82;49.57
7157;BME280;3620;49.862;8.758;2022-07-29T08:41:47;99099.88;;;24.92;49.37
7157;BME280;3620;49.862;8.758;2022-07-29T08:44:16;99097.66;;;24.87;48.75
7157;BME280;3620;49.862;8.758;2022-07-29T08:46:43;99094.66;;;24.98;48.98
7157;BME280;3620;49.862;8.758;2022-07-29T08:49:10;99093.38;;;25.10;49.39
7157;BME280;3620;49.862;8.758;2022-07-29T08:51:39;99094.91;;;25.21;48.47
7157;BME280;3620;49.862;8.758;2022-07-29T08:54:08;99109.41;;;25.28;49.12
7157;BME280;3620;49.862;8.758;2022-07-29T08:56:35;99102.84;;;25.30;48.72
7157;BME280;3620;49.862;8.758;2022-07-29T08:59:03;99108.75;;;25.42;48.84
7157;BME280;3620;49.862;8.758;2022-07-29T09:01:32;99105.75;;;25.45;47.86
7157;BME280;3620;49.862;8.758;2022-07-29T09:04:01;99102.72;;;25.56;48.02
7157;BME280;3620;49.862;8.758;2022-07-29T09:06:31;99105.59;;;25.71;48.64
7157;BME280;3620;49.862;8.758;2022-07-29T09:09:00;99104.41;;;25.81;48.41
7157;BME280;3620;49.862;8.758;2022-07-29T09:11:27;99103.41;;;25.90;47.06
7157;BME280;3620;49.862;8.758;2022-07-29T09:13:54;99101.03;;;25.95;47.33
7157;BME280;3620;49.862;8.758;2022-07-29T09:16:21;99100.50;;;26.08;48.08
7157;BME280;3620;49.862;8.758;2022-07-29T09:18:49;99102.75;;;26.12;48.12
7157;BME280;3620;49.862;8.758;2022-07-29T09:21:17;99103.03;;;26.26;48.08
7157;BME280;3620;49.862;8.758;2022-07-29T09:24:04;99103.03;;;26.26;47.80
7157;BME280;3620;49.862;8.758;2022-07-29T09:26:33;99102.41;;;26.15;48.88
7157;BME280;3620;49.862;8.758;2022-07-29T09:29:07;99102.41;;;26.15;48.01
7157;BME280;3620;49.862;8.758;2022-07-29T09:31:37;99104.41;;;26.22;47.74
7157;BME280;3620;49.862;8.758;2022-07-29T09:34:07;99094.94;;;26.26;47.64
7157;BME280;3620;49.862;8.758;2022-07-29T09:36:41;99104.75;;;26.27;48.50
7157;BME280;3620;49.862;8.758;2022-07-29T09:39:08;99100.00;;;26.21;48.57
7157;BME280;3620;49.862;8.758;2022-07-29T09:41:50;99090.41;;;26.26;48.98
7157;BME280;3620;49.862;8.758;2022-07-29T09:47:02;99094.78;;;26.27;47.74
7157;BME280;3620;49.862;8.758;2022-07-29T09:49:33;99086.16;;;26.32;48.49
7157;BME280;3620;49.862;8.758;2022-07-29T09:52:03;99086.53;;;26.29;48.91
7157;BME280;3620;49.862;8.758;2022-07-29T09:54:31;99082.63;;;26.39;50.62
7157;BME280;3620;49.862;8.758;2022-07-29T09:57:02;99088.47;;;26.51;49.98
7157;BME280;3620;49.862;8.758;2022-07-29T09:59:29;99087.72;;;26.65;49.93
7157;BME280;3620;49.862;8.758;2022-07-29T10:01:56;99088.41;;;26.75;49.04
7157;BME280;3620;49.862;8.758;2022-07-29T10:04:23;99082.94;;;26.91;49.04
7157;BME280;3620;49.862;8.758;2022-07-29T10:06:58;99084.88;;;27.05;48.41
7157;BME280;3620;49.862;8.758;2022-07-29T10:09:25;99083.09;;;26.98;47.74
7157;BME280;3620;49.862;8.758;2022-07-29T10:12:07;99077.69;;;26.98;47.43
7157;BME280;3620;49.862;8.758;2022-07-29T10:14:35;99087.66;;;26.89;47.41
7157;BME280;3620;49.862;8.758;2022-07-29T10:17:03;99077.19;;;26.94;47.74
7157;BME280;3620;49.862;8.758;2022-07-29T10:19:31;99072.88;;;27.08;48.71
7157;BME280;3620;49.862;8.758;2022-07-29T10:22:01;99077.69;;;27.20;47.22
7157;BME280;3620;49.862;8.758;2022-07-29T10:24:30;99069.16;;;27.31;47.54
7157;BME280;3620;49.862;8.758;2022-07-29T10:26:58;99071.22;;;27.29;47.62
7157;BME280;3620;49.862;8.758;2022-07-29T10:29:26;99082.88;;;27.30;46.70
7157;BME280;3620;49.862;8.758;2022-07-29T10:32:16;99067.78;;;27.43;46.92
7157;BME280;3620;49.862;8.758;2022-07-29T10:35:01;99065.38;;;27.48;46.78
7157;BME280;3620;49.862;8.758;2022-07-29T10:37:42;99071.22;;;27.37;47.45
7157;BME280;3620;49.862;8.758;2022-07-29T10:40:18;99072.69;;;27.63;47.69
7157;BME280;3620;49.862;8.758;2022-07-29T10:43:14;99067.06;;;27.87;47.17
7157;BME280;3620;49.862;8.758;2022-07-29T10:45:44;99067.59;;;28.05;47.13
7157;BME280;3620;49.862;8.758;2022-07-29T10:48:11;99063.63;;;28.15;45.77
7157;BME280;3620;49.862;8.758;2022-07-29T10:50:55;99063.31;;;28.25;46.50
7157;BME280;3620;49.862;8.758;2022-07-29T10:53:24;99072.66;;;28.37;45.33
7157;BME280;3620;49.862;8.758;2022-07-29T10:55:52;99064.84;;;28.42;45.41
7157;BME280;3620;49.862;8.758;2022-07-29T10:58:20;99061.25;;;28.27;44.92
7157;BME280;3620;49.862;8.758;2022-07-29T11:00:49;99069.19;;;28.14;44.36
7157;BME280;3620;49.862;8.758;2022-07-29T11:03:44;99051.94;;;28.15;44.87
7157;BME280;3620;49.862;8.758;2022-07-29T11:06:12;99058.28;;;28.07;45.45
7157;BME280;3620;49.862;8.758;2022-07-29T11:08:40;99050.66;;;28.11;45.50
7157;BME280;3620;49.862;8.758;2022-07-29T11:11:32;99050.66;;;28.11;44.96
7157;BME280;3620;49.862;8.758;2022-07-29T11:13:59;99040.72;;;28.18;45.08
7157;BME280;3620;49.862;8.758;2022-07-29T11:16:59;99043.38;;;28.26;45.54
7157;BME280;3620;49.862;8.758;2022-07-29T11:19:27;99044.66;;;28.30;45.51
7157;BME280;3620;49.862;8.758;2022-07-29T11:21:54;99041.03;;;28.38;44.89
7157;BME280;3620;49.862;8.758;2022-07-29T11:24:24;99038.91;;;28.33;45.54
7157;BME280;3620;49.862;8.758;2022-07-29T11:27:11;99045.22;;;28.40;45.58
7157;BME280;3620;49.862;8.758;2022-07-29T11:29:48;99047.41;;;28.59;44.98
7157;BME280;3620;49.862;8.758;2022-07-29T11:32:16;99044.69;;;28.59;44.45
7157;BME280;3620;49.862;8.758;2022-07-29T11:34:45;99040.44;;;28.71;43.86
7157;BME280;3620;49.862;8.758;2022-07-29T11:37:20;99042.44;;;28.77;44.56
7157;BME280;3620;49.862;8.758;2022-07-29T11:40:16;99035.63;;;29.02;44.46
7157;BME280;3620;49.862;8.758;2022-07-29T11:42:49;99033.19;;;29.08;44.15
7157;BME280;3620;49.862;8.758;2022-07-29T11:45:21;99030.78;;;29.34;44.18
7157;BME280;3620;49.862;8.758;2022-07-29T11:47:53;99031.22;;;29.58;44.02
7157;BME280;3620;49.862;8.758;2022-07-29T11:50:34;99031.81;;;29.75;43.30
7157;BME280;3620;49.862;8.758;2022-07-29T11:53:05;99034.22;;;29.91;42.75
7157;BME280;3620;49.862;8.758;2022-07-29T11:55:39;99026.91;;;29.92;41.39
7157;BME280;3620;49.862;8.758;2022-07-29T11:58:07;99026.09;;;29.70;41.93
7157;BME280;3620;49.862;8.758;2022-07-29T12:00:36;99028.69;;;29.57;42.04
7157;BME280;3620;49.862;8.758;2022-07-29T12:03:05;99019.28;;;29.53;42.40
7157;BME280;3620;49.862;8.758;2022-07-29T12:05:35;99026.84;;;29.57;42.10
7157;BME280;3620;49.862;8.758;2022-07-29T12:08:14;99016.38;;;29.76;42.02
7157;BME280;3620;49.862;8.758;2022-07-29T12:10:43;99018.03;;;29.77;42.35
7157;BME280;3620;49.862;8.758;2022-07-29T12:13:12;99023.38;;;29.70;42.38
7157;BME280;3620;49.862;8.758;2022-07-29T12:15:39;99011.50;;;29.71;42.28
7157;BME280;3620;49.862;8.758;2022-07-29T12:18:13;99007.75;;;29.72;42.90
7157;BME280;3620;49.862;8.758;2022-07-29T12:20:40;99011.63;;;29.63;42.39
7157;BME280;3620;49.862;8.758;2022-07-29T12:23:08;99007.09;;;29.70;41.53
7157;BME280;3620;49.862;8.758;2022-07-29T12:25:37;99000.59;;;29.86;43.08
7157;BME280;3620;49.862;8.758;2022-07-29T12:28:08;99008.38;;;29.74;42.15
7157;BME280;3620;49.862;8.758;2022-07-29T12:30:38;99003.09;;;29.87;41.41
7157;BME280;3620;49.862;8.758;2022-07-29T12:33:17;98994.91;;;30.08;41.88
7157;BME280;3620;49.862;8.758;2022-07-29T12:35:47;98993.91;;;30.22;42.36
7157;BME280;3620;49.862;8.758;2022-07-29T12:38:14;98991.59;;;30.54;41.71
7157;BME280;3620;49.862;8.758;2022-07-29T12:40:43;98989.00;;;30.80;40.11
7157;BME280;3620;49.862;8.758;2022-07-29T12:43:13;98987.16;;;30.87;39.23
7157;BME280;3620;49.862;8.758;2022-07-29T12:45:43;98985.69;;;30.84;40.14
7157;BME280;3620;49.862;8.758;2022-07-29T12:48:10;98983.63;;;30.93;39.48
7157;BME280;3620;49.862;8.758;2022-07-29T12:50:53;98975.28;;;31.01;38.63
7157;BME280;3620;49.862;8.758;2022-07-29T12:53:20;98972.91;;;30.85;38.56
7157;BME280;3620;49.862;8.758;2022-07-29T12:55:48;98973.19;;;31.03;40.42
7157;BME280;3620;49.862;8.758;2022-07-29T12:58:29;98973.22;;;31.16;39.75
7157;BME280;3620;49.862;8.758;2022-07-29T13:01:05;98974.91;;;31.17;38.74
7157;BME280;3620;49.862;8.758;2022-07-29T13:03:46;98981.16;;;31.11;38.81
7157;BME280;3620;49.862;8.758;2022-07-29T13:06:35;98972.75;;;30.93;38.52
7157;BME280;3620;49.862;8.758;2022-07-29T13:09:08;98982.38;;;30.89;39.23
7157;BME280;3620;49.862;8.758;2022-07-29T13:11:37;98972.75;;;30.93;39.24
7157;BME280;3620;49.862;8.758;2022-07-29T13:14:07;98976.53;;;31.05;38.63
7157;BME280;3620;49.862;8.758;2022-07-29T13:16:35;98967.75;;;31.03;38.89
7157;BME280;3620;49.862;8.758;2022-07-29T13:19:04;98969.44;;;31.04;38.53
7157;BME280;3620;49.862;8.758;2022-07-29T13:21:31;98964.66;;;31.19;38.24
7157;BME280;3620;49.862;8.758;2022-07-29T13:23:58;98971.97;;;31.38;39.46
7157;BME280;3620;49.862;8.758;2022-07-29T13:26:25;98970.13;;;31.45;38.06
7157;BME280;3620;49.862;8.758;2022-07-29T13:28:53;98967.41;;;31.52;37.65
7157;BME280;3620;49.862;8.758;2022-07-29T13:31:21;98966.31;;;31.13;37.94
7157;BME280;3620;49.862;8.758;2022-07-29T13:33:48;98977.00;;;31.15;38.32
7157;BME280;3620;49.862;8.758;2022-07-29T13:36:15;98974.06;;;31.23;37.06
7157;BME280;3620;49.862;8.758;2022-07-29T13:38:42;98976.59;;;31.31;37.78
7157;BME280;3620;49.862;8.758;2022-07-29T13:41:09;98971.59;;;31.41;37.84
7157;BME280;3620;49.862;8.758;2022-07-29T13:43:36;98969.50;;;31.43;37.71